Time;durP1;ratioP1;P1;durP2;ratioP2;P2;SDS_P1;SDS_P2;PMS_P1;PMS_P2;Temp;Humidity;BMP_temperature;BMP_pressure;BME280_temperature;BME280_humidity;BME280_pressure;Samples;Min_cycle;Max_cycle;Signal;HPM_P1;HPM_P2
2022/04/02 00:00:56;;;;;;;5.32;3.55;;;;;;;29.27;53.01;100984.06;4991832;28;71343;-36
2022/04/02 00:03:27;;;;;;;4.60;3.80;;;;;;;29.32;53.17;101003.19;4978673;28;66468;-36
2022/04/02 00:05:58;;;;;;;3.80;3.55;;;;;;;29.36;53.54;101009.88;4981223;28;69608;-37
2022/04/02 00:08:28;;;;;;;4.75;3.38;;;;;;;29.30;54.02;100999.88;4985919;28;65393;-37
2022/04/02 00:10:59;;;;;;;4.90;3.13;;;;;;;29.38;54.04;101007.78;4995253;28;71748;-37
2022/04/02 00:13:31;;;;;;;9.85;5.55;;;;;;;29.49;59.40;101016.31;4996960;28;66355;-36
2022/04/02 00:16:03;;;;;;;7.88;6.00;;;;;;;29.40;66.86;101013.81;5010851;28;69958;-35
2022/04/02 00:18:35;;;;;;;24.98;5.68;;;;;;;29.57;67.54;101037.72;4987694;28;66363;-33
2022/04/02 00:21:06;;;;;;;19.58;6.55;;;;;;;29.56;67.83;101046.84;5000148;28;70301;-34
2022/04/02 00:23:40;;;;;;;23.42;5.55;;;;;;;29.60;68.98;101048.94;5008406;28;65756;-34
2022/04/02 00:26:23;;;;;;;10.93;6.07;;;;;;;29.31;69.87;101001.53;5001445;28;70157;-36
2022/04/02 00:28:53;;;;;;;;;;;;;;;29.34;71.79;101060.56;5021610;28;66280;-35
2022/04/02 00:31:24;;;;;;;11.25;5.40;;;;;;;29.65;69.30;101048.38;4992927;28;70364;-36
2022/04/02 00:33:55;;;;;;;16.15;5.72;;;;;;;29.70;70.33;101056.69;4997099;28;66575;-36
2022/04/02 00:36:26;;;;;;;11.47;5.73;;;;;;;29.69;69.58;101060.41;5008397;28;69149;-35
2022/04/02 00:38:57;;;;;;;15.23;5.93;;;;;;;29.70;69.30;101048.56;5011247;28;66418;-37
2022/04/02 00:41:29;;;;;;;8.70;5.43;;;;;;;29.72;70.30;101057.28;4977652;28;70269;-35
2022/04/02 00:44:09;;;;;;;10.30;5.38;;;;;;;29.77;69.77;101054.78;5012773;28;66268;-35
2022/04/02 00:46:42;;;;;;;35.08;5.50;;;;;;;29.44;70.14;100989.06;5016488;28;69597;-35
2022/04/02 00:49:15;;;;;;;14.13;5.30;;;;;;;29.84;69.45;101050.22;4998047;28;66604;-35
2022/04/02 00:51:49;;;;;;;15.25;5.10;;;;;;;29.86;69.04;101054.59;4996525;28;70458;-36
2022/04/02 00:54:21;;;;;;;7.80;5.43;;;;;;;29.51;69.16;101006.13;5016907;28;66124;-34
2022/04/02 00:56:53;;;;;;;8.48;4.53;;;;;;;29.16;69.25;100950.41;5016230;28;70762;-34
2022/04/02 00:59:23;;;;;;;9.30;5.40;;;;;;;29.82;69.26;101057.72;5016262;28;66383;-34
2022/04/02 01:01:54;;;;;;;7.88;4.93;;;;;;;29.88;69.27;101068.72;5012271;28;70143;-34
2022/04/02 01:04:25;;;;;;;6.90;5.25;;;;;;;29.88;69.02;101057.91;5013776;28;66572;-35
2022/04/02 01:06:59;;;;;;;19.17;5.53;;;;;;;29.83;69.34;101053.94;5011737;28;69595;-35
2022/04/02 01:09:32;;;;;;;12.32;5.70;;;;;;;29.94;69.33;101065.19;5016820;28;66138;-34
2022/04/02 01:12:04;;;;;;;21.15;5.93;;;;;;;29.97;68.82;101064.75;4979158;28;68988;-35
2022/04/02 01:14:38;;;;;;;6.85;5.22;;;;;;;30.01;68.78;101064.16;5001922;28;65828;-34
2022/04/02 01:17:22;;;;;;;6.55;5.38;;;;;;;29.99;69.14;101073.50;5013549;28;70737;-34
2022/04/02 01:19:53;;;;;;;6.80;4.88;;;;;;;30.05;68.12;101073.50;5004539;28;66478;-35
2022/04/02 01:26:20;;;;;;;10.18;6.35;;;;;;;29.89;68.68;101027.13;5012555;28;66325;-34
2022/04/02 01:29:01;;;;;;;9.63;5.90;;;;;;;30.19;68.52;101084.31;4974379;28;69431;-35
2022/04/02 01:31:52;;;;;;;6.20;5.63;;;;;;;30.25;67.98;101089.72;4988757;28;66635;-37
2022/04/02 01:34:28;;;;;;;20.25;5.63;;;;;;;30.28;67.74;101085.75;4993430;28;68255;-34
2022/04/02 01:37:06;;;;;;;13.65;6.22;;;;;;;30.33;67.74;101080.56;4997541;28;65166;-35
2022/04/02 01:39:44;;;;;;;17.88;5.80;;;;;;;30.37;66.98;101079.09;4991656;28;69576;-35
2022/04/02 01:42:24;;;;;;;11.02;5.60;;;;;;;30.41;67.19;101087.63;4979775;28;65280;-35
2022/04/02 01:45:04;;;;;;;6.38;4.72;;;;;;;30.37;67.79;101079.09;4994979;28;69605;-35
2022/04/02 01:47:46;;;;;;;13.48;5.63;;;;;;;30.44;67.54;101096.13;4996640;28;66180;-34
2022/04/02 01:50:18;;;;;;;6.27;4.83;;;;;;;30.46;67.22;101095.94;4996553;28;70019;-35
2022/04/02 01:52:52;;;;;;;6.15;5.07;;;;;;;30.51;67.24;101098.84;4981392;28;66080;-39
2022/04/02 01:55:24;;;;;;;5.70;4.80;;;;;;;30.55;67.00;101105.47;4996554;28;69209;-35
2022/04/02 01:58:02;;;;;;;12.40;5.60;;;;;;;30.53;67.33;101102.16;4980932;28;66221;-34
2022/04/02 02:00:46;;;;;;;12.95;5.40;;;;;;;30.56;66.97;101107.13;4978186;28;69621;-35
2022/04/02 02:03:20;;;;;;;6.43;5.68;;;;;;;30.60;66.94;101111.09;4979019;28;66429;-35
2022/04/02 02:05:53;;;;;;;21.05;5.55;;;;;;;30.56;67.52;101096.31;4998600;28;70559;-35
2022/04/02 02:08:25;;;;;;;10.93;5.75;;;;;;;30.68;67.42;101110.84;4964876;28;65601;-35
2022/04/02 02:11:03;;;;;;;12.18;5.07;;;;;;;30.66;67.33;101099.41;4997896;28;70156;-35
2022/04/02 02:14:12;;;;;;;8.85;4.95;;;;;;;30.71;67.10;101105.00;4928655;28;66575;-34
2022/04/02 02:16:46;;;;;;;13.85;5.63;;;;;;;30.79;66.58;101116.66;4925672;28;70439;-36
2022/04/02 02:19:18;;;;;;;16.40;6.13;;;;;;;30.79;66.66;101112.06;4936253;28;65386;-36
2022/04/02 02:21:51;;;;;;;21.63;6.30;;;;;;;30.80;67.07;101118.34;4976578;28;68057;-35
2022/04/02 02:24:22;;;;;;;46.15;10.35;;;;;;;30.82;67.31;101110.84;4999934;28;66124;-35
2022/04/02 02:26:53;;;;;;;23.80;10.40;;;;;;;30.87;66.53;101097.47;4984633;28;71241;-35
2022/04/02 02:29:32;;;;;;;26.20;8.60;;;;;;;30.88;67.09;101099.16;4986748;28;65171;-35
2022/04/02 02:32:16;;;;;;;24.25;8.27;;;;;;;30.80;66.78;101075.84;4992640;28;69915;-37
2022/04/02 02:37:37;;;;;;;19.23;8.45;;;;;;;30.94;66.61;101071.19;5010121;28;69222;-35
2022/04/02 02:40:12;;;;;;;30.50;8.20;;;;;;;31.00;67.00;101075.75;4994940;28;66355;-34
2022/04/02 02:42:43;;;;;;;27.67;7.63;;;;;;;31.03;66.24;101069.88;4963852;28;69164;-36
2022/04/02 02:45:27;;;;;;;22.25;7.03;;;;;;;31.07;66.47;101071.13;4980216;28;64655;-35
2022/04/02 02:48:03;;;;;;;15.23;6.43;;;;;;;31.05;66.90;101067.81;4996959;28;70175;-37
2022/04/02 02:50:54;;;;;;;12.75;6.50;;;;;;;31.05;66.71;101064.25;4995714;28;66583;-36
2022/04/02 02:53:27;;;;;;;9.15;6.10;;;;;;;31.06;67.23;101068.63;5000924;28;69580;-36
2022/04/02 02:56:00;;;;;;;12.35;6.10;;;;;;;31.09;66.87;101052.78;4969834;28;64604;-37
2022/04/02 02:58:30;;;;;;;8.65;4.53;;;;;;;31.06;66.97;101050.47;4984810;28;70436;-37
2022/04/02 03:01:03;;;;;;;7.43;5.47;;;;;;;31.10;67.06;101042.78;4966323;28;65848;-37
2022/04/02 03:03:35;;;;;;;14.57;5.28;;;;;;;31.11;66.55;101036.28;4997413;28;69892;-35
2022/04/02 03:06:09;;;;;;;14.30;5.80;;;;;;;31.09;66.50;101033.81;5000640;28;65387;-36
2022/04/02 03:08:43;;;;;;;10.52;5.72;;;;;;;31.13;66.39;101037.75;4999467;28;70440;-37
2022/04/02 03:11:18;;;;;;;6.97;4.80;;;;;;;31.20;66.28;101045.00;4987794;28;65248;-36
2022/04/02 03:13:49;;;;;;;9.13;5.25;;;;;;;31.16;65.81;101037.28;4976335;28;71088;-36
2022/04/02 03:16:21;;;;;;;7.78;5.18;;;;;;;31.22;65.60;101045.59;4952936;28;65042;-36
2022/04/02 03:19:06;;;;;;;7.63;4.95;;;;;;;31.26;65.75;101041.41;5000388;28;69645;-36
2022/04/02 03:21:37;;;;;;;8.15;5.30;;;;;;;31.27;65.95;101048.50;5005893;28;66932;-36
2022/04/02 03:24:09;;;;;;;10.67;4.30;;;;;;;31.24;65.14;101035.38;5001478;28;69096;-37
2022/04/02 03:26:41;;;;;;;10.32;4.70;;;;;;;31.31;65.53;101044.28;5017784;28;65351;-36
2022/04/02 03:29:22;;;;;;;8.02;4.63;;;;;;;31.29;64.95;101041.00;5005488;28;70623;-35
2022/04/02 03:31:54;;;;;;;8.30;4.70;;;;;;;31.33;65.05;101047.63;5021194;28;67253;-36
2022/04/02 03:34:29;;;;;;;11.27;4.78;;;;;;;31.37;64.58;101044.28;5021073;28;70515;-36
2022/04/02 03:37:02;;;;;;;7.82;4.35;;;;;;;31.58;64.41;101039.53;4984082;28;66668;-36
2022/04/02 03:39:36;;;;;;;5.45;4.40;;;;;;;31.68;63.64;101045.28;4983390;28;70499;-42
2022/04/02 03:42:09;;;;;;;6.65;4.10;;;;;;;31.77;62.83;101040.41;5010300;28;65826;-36
2022/04/02 03:44:42;;;;;;;11.50;3.97;;;;;;;31.86;62.39;101030.94;5023474;28;69564;-36
2022/04/02 03:47:15;;;;;;;4.93;3.90;;;;;;;31.95;62.54;101039.63;5007602;28;65359;-35
2022/04/02 03:49:53;;;;;;;4.45;3.88;;;;;;;32.01;61.80;101028.72;5017858;28;69416;-36
2022/04/02 03:52:37;;;;;;;7.18;4.25;;;;;;;32.07;61.80;101031.56;4966762;28;66514;-37
2022/04/02 03:55:15;;;;;;;5.57;3.60;;;;;;;32.13;61.39;101025.28;4975514;28;70032;-36
2022/04/02 03:57:49;;;;;;;4.30;3.95;;;;;;;32.19;61.15;101027.06;5005960;28;65589;-35
2022/04/02 04:00:24;;;;;;;11.70;4.30;;;;;;;32.22;61.09;101024.72;4996363;28;69654;-36
2022/04/02 04:03:05;;;;;;;6.00;3.88;;;;;;;32.26;61.03;101025.97;5006649;28;65441;-36
2022/04/02 04:05:40;;;;;;;8.27;4.30;;;;;;;32.22;61.09;101002.19;4976740;28;69580;-36
2022/04/02 04:08:11;;;;;;;6.32;3.78;;;;;;;32.30;60.79;101015.47;5014706;28;66225;-36
2022/04/02 04:10:44;;;;;;;5.95;4.00;;;;;;;32.30;60.51;101010.03;4997586;28;69632;-36
2022/04/02 04:13:17;;;;;;;5.28;4.20;;;;;;;32.35;60.67;101007.47;5000325;28;66383;-35
2022/04/02 04:15:50;;;;;;;8.00;4.22;;;;;;;32.38;60.45;101001.59;4997979;28;69734;-36
2022/04/02 04:18:21;;;;;;;4.13;3.72;;;;;;;32.30;60.60;100982.06;5001258;28;65641;-36
2022/04/02 04:20:53;;;;;;;7.68;3.83;;;;;;;32.40;60.70;100991.34;4996146;28;69654;-36
2022/04/02 04:23:29;;;;;;;4.20;3.40;;;;;;;32.43;60.24;100981.88;4995827;28;65800;-36
2022/04/02 04:26:03;;;;;;;6.18;3.92;;;;;;;32.45;60.34;100994.16;4985818;28;69934;-37
2022/04/02 04:28:40;;;;;;;6.20;4.10;;;;;;;32.41;60.38;100976.69;4999146;28;66534;-36
2022/04/02 04:31:18;;;;;;;12.43;3.80;;;;;;;32.53;60.27;100989.53;5017741;28;70090;-36
2022/04/02 04:33:51;;;;;;;4.95;3.50;;;;;;;32.54;59.58;100981.16;4980514;28;66163;-36
2022/04/02 04:36:24;;;;;;;9.48;3.40;;;;;;;32.53;59.82;100982.19;4988500;28;70158;-43
2022/04/02 04:38:57;;;;;;;4.68;3.45;;;;;;;32.58;59.72;100978.81;5007627;28;65901;-36
2022/04/02 04:41:38;;;;;;;3.90;3.55;;;;;;;32.54;59.41;100967.59;5011418;28;69734;-36
2022/04/02 04:44:14;;;;;;;4.15;3.58;;;;;;;32.63;59.76;100970.81;4981836;28;66440;-36
2022/04/02 04:46:46;;;;;;;3.80;3.50;;;;;;;32.62;59.61;100972.66;5005433;28;69355;-36
2022/04/02 04:49:20;;;;;;;6.18;3.75;;;;;;;32.66;59.33;100971.16;5018755;28;65355;-36
2022/04/02 04:51:58;;;;;;;8.88;4.03;;;;;;;32.68;59.30;100979.06;4997626;28;70003;-37
2022/04/02 04:54:30;;;;;;;4.70;4.00;;;;;;;32.71;58.97;100975.91;4963244;28;66466;-36
2022/04/02 04:57:05;;;;;;;5.35;3.67;;;;;;;32.70;58.82;100955.22;4996538;28;70039;-36
2022/04/02 04:59:38;;;;;;;4.10;3.58;;;;;;;32.63;58.97;100938.22;4997904;28;66669;-36
2022/04/02 05:02:13;;;;;;;3.97;3.67;;;;;;;32.76;58.69;100957.00;5015981;28;70412;-35
2022/04/02 05:04:44;;;;;;;;;;;;;;;32.45;58.31;100950.72;5015456;28;66926;-36
2022/04/02 05:07:18;;;;;;;7.15;3.90;;;;;;;32.78;57.98;100949.47;4968931;28;68960;-35
2022/04/02 05:09:54;;;;;;;3.70;3.22;;;;;;;32.82;57.45;100942.53;4967426;28;65530;-36
2022/04/02 05:12:26;;;;;;;6.53;4.00;;;;;;;32.83;57.51;100944.16;5014813;28;70207;-35
2022/04/02 05:15:02;;;;;;;10.43;3.78;;;;;;;32.84;57.65;100951.25;5005332;28;65718;-36
2022/04/02 05:17:34;;;;;;;8.55;3.75;;;;;;;32.86;57.51;100942.88;4994461;28;69407;-36
2022/04/02 05:20:11;;;;;;;9.65;3.80;;;;;;;32.88;57.29;100938.88;4998668;28;66229;-36
2022/04/02 05:22:46;;;;;;;9.82;4.25;;;;;;;32.89;57.68;100929.66;5000277;28;68977;-36
2022/04/02 05:25:18;;;;;;;5.90;3.88;;;;;;;32.92;57.41;100931.91;4967464;28;65954;-36
2022/04/02 05:27:50;;;;;;;5.57;3.92;;;;;;;32.93;57.46;100925.41;4964615;28;70085;-36
2022/04/02 05:30:22;;;;;;;4.40;4.03;;;;;;;32.95;57.50;100922.47;5016956;28;65786;-39
2022/04/02 05:32:55;;;;;;;4.18;3.70;;;;;;;32.94;57.45;100912.66;4979978;28;69983;-36
2022/04/02 05:35:27;;;;;;;4.77;4.10;;;;;;;32.94;57.43;100891.75;4998800;28;66373;-36
2022/04/02 05:37:59;;;;;;;4.60;4.00;;;;;;;33.00;57.30;100908.22;4982002;28;70090;-36
2022/04/02 05:40:30;;;;;;;6.97;3.58;;;;;;;33.00;57.13;100889.19;4998352;28;65843;-35
2022/04/02 05:43:01;;;;;;;4.32;3.78;;;;;;;32.94;57.06;100875.44;4981759;28;69440;-36
2022/04/02 05:45:33;;;;;;;3.85;3.55;;;;;;;33.02;57.05;100882.47;4998071;28;65205;-36
2022/04/02 05:48:04;;;;;;;;;;;;;;;32.74;57.46;100871.41;4995726;28;68986;-35
2022/04/02 05:50:36;;;;;;;4.80;3.47;;;;;;;33.05;56.93;100864.84;4998395;28;66104;-36
2022/04/02 05:53:06;;;;;;;3.37;3.07;;;;;;;32.95;57.25;100838.22;4981563;28;69849;-35
2022/04/02 05:55:38;;;;;;;3.57;3.33;;;;;;;33.01;56.96;100831.88;5006213;28;65699;-35
2022/04/02 05:58:12;;;;;;;3.85;3.45;;;;;;;33.05;56.68;100826.81;5013523;28;70175;-35
2022/04/02 06:00:43;;;;;;;4.43;3.75;;;;;;;33.11;57.02;100825.84;4986741;28;65975;-37
2022/04/02 06:03:19;;;;;;;7.07;3.65;;;;;;;33.10;56.38;100813.34;5015500;28;69672;-35
2022/04/02 06:05:51;;;;;;;5.70;3.15;;;;;;;33.18;56.48;100810.25;5013731;28;66128;-35
2022/04/02 06:08:22;;;;;;;4.03;3.63;;;;;;;33.19;56.70;100811.91;5016440;28;69099;-36
2022/04/02 06:10:52;;;;;;;3.33;3.00;;;;;;;33.20;56.81;100797.25;5017237;28;66075;-36
2022/04/02 06:13:23;;;;;;;3.40;3.10;;;;;;;33.24;56.88;100803.88;5017964;28;69420;-36
2022/04/02 06:15:54;;;;;;;7.07;3.15;;;;;;;33.25;56.67;100791.91;5016378;28;65995;-34
2022/04/02 06:18:25;;;;;;;3.07;2.63;;;;;;;33.28;56.46;100794.16;5017714;28;69465;-35
2022/04/02 06:20:56;;;;;;;3.80;3.22;;;;;;;33.29;56.52;100784.97;5017449;28;65719;-36
2022/04/02 06:23:27;;;;;;;3.70;3.40;;;;;;;33.30;56.45;100774.91;5016889;28;70491;-36
2022/04/02 06:25:58;;;;;;;9.50;3.88;;;;;;;33.17;56.75;100770.53;5018313;28;66688;-36
2022/04/02 06:28:28;;;;;;;5.82;3.65;;;;;;;32.94;57.97;100772.19;5017170;28;70116;-36
2022/04/02 06:30:59;;;;;;;9.95;3.60;;;;;;;32.82;58.17;100763.22;4964645;28;67330;-37
2022/04/02 06:33:38;;;;;;;4.15;3.67;;;;;;;32.68;58.96;100754.47;4980849;28;69312;-36
2022/04/02 06:36:11;;;;;;;4.57;3.95;;;;;;;32.69;58.90;100752.59;4980151;28;65576;-35
2022/04/02 06:38:42;;;;;;;9.00;3.67;;;;;;;32.64;59.01;100744.31;4993422;28;70438;-35
2022/04/02 06:41:16;;;;;;;7.95;3.90;;;;;;;32.57;59.30;100733.59;4998097;28;65363;-36
2022/04/02 06:43:47;;;;;;;7.40;3.80;;;;;;;32.62;59.05;100730.16;5001528;28;69917;-36
2022/04/02 06:46:21;;;;;;;3.95;3.53;;;;;;;32.64;59.55;100739.72;4984029;28;66042;-36
2022/04/02 06:48:54;;;;;;;7.40;3.63;;;;;;;32.66;59.37;100728.63;4996018;28;69499;-37
2022/04/02 06:51:26;;;;;;;3.40;3.08;;;;;;;32.70;59.13;100727.06;5001231;28;65950;-36
2022/04/02 06:53:57;;;;;;;7.05;3.05;;;;;;;32.72;59.36;100719.53;5010054;28;69975;-36
2022/04/02 06:56:28;;;;;;;4.45;3.05;;;;;;;32.69;59.41;100704.53;5007234;28;66009;-37
2022/04/02 06:58:58;;;;;;;4.53;3.13;;;;;;;32.77;59.11;100706.06;5001579;28;70356;-36
2022/04/02 07:01:29;;;;;;;8.52;3.33;;;;;;;32.78;59.29;100701.44;4987039;28;65436;-36
2022/04/02 07:04:00;;;;;;;2.97;2.70;;;;;;;32.84;58.99;100689.63;4999605;28;70193;-36
2022/04/02 07:06:34;;;;;;;4.13;3.03;;;;;;;32.86;59.07;100693.75;5017062;28;66167;-36
2022/04/02 07:09:05;;;;;;;6.60;3.20;;;;;;;32.87;58.99;100692.69;5021546;28;70125;-35
2022/04/02 07:11:35;;;;;;;7.90;2.72;;;;;;;32.93;59.09;100693.63;5012703;28;66788;-36
2022/04/02 07:14:06;;;;;;;3.08;2.50;;;;;;;32.97;58.81;100694.00;5020695;28;70599;-36
2022/04/02 07:16:38;;;;;;;4.32;2.65;;;;;;;32.98;58.91;100679.31;5017784;28;66000;-36
2022/04/02 07:19:10;;;;;;;5.88;2.58;;;;;;;33.06;58.70;100677.09;5017173;28;70507;-36
2022/04/02 07:21:42;;;;;;;3.67;3.25;;;;;;;33.08;58.38;100679.59;5003628;28;65579;-35
2022/04/02 07:24:13;;;;;;;3.63;2.78;;;;;;;33.12;58.48;100676.13;5000553;28;68575;-35
2022/04/02 07:26:47;;;;;;;3.53;2.63;;;;;;;33.17;58.43;100678.13;4983727;28;65976;-35
2022/04/02 07:29:18;;;;;;;4.82;2.67;;;;;;;33.22;58.41;100686.41;5020651;28;69700;-35
2022/04/02 07:31:48;;;;;;;3.75;2.28;;;;;;;33.26;58.34;100684.00;5007525;28;65518;-35
2022/04/02 07:34:26;;;;;;;4.78;2.47;;;;;;;33.29;58.29;100675.38;4964526;28;69621;-39
2022/04/02 07:37:21;;;;;;;3.97;2.20;;;;;;;33.22;58.51;100667.38;5020224;28;66334;-36
2022/04/02 07:40:25;;;;;;;2.25;2.00;;;;;;;33.18;58.32;100658.03;4998767;28;69533;-36
2022/04/02 07:43:16;;;;;;;4.50;2.35;;;;;;;33.32;57.87;100653.97;4952892;28;65807;-35
2022/04/02 07:46:10;;;;;;;4.88;2.42;;;;;;;33.09;57.81;100584.22;5013483;28;70089;-35
2022/04/02 07:48:45;;;;;;;2.17;1.98;;;;;;;33.50;57.81;100643.97;5036130;28;66424;-35
2022/04/02 07:51:18;;;;;;;2.10;1.90;;;;;;;33.52;57.39;100637.25;5038314;28;69633;-36
2022/04/02 07:53:51;;;;;;;3.13;2.50;;;;;;;33.26;57.80;100584.25;5021940;28;65694;-36
2022/04/02 07:56:31;;;;;;;2.03;1.83;;;;;;;33.21;57.66;100565.16;4999729;28;69333;-36
2022/04/02 07:59:09;;;;;;;3.28;2.30;;;;;;;33.57;57.82;100615.59;5020039;28;64939;-36
2022/04/02 08:01:44;;;;;;;4.18;2.40;;;;;;;33.63;57.58;100613.78;5002481;28;70617;-35
2022/04/02 08:04:21;;;;;;;3.47;1.90;;;;;;;33.59;57.52;100593.56;5000659;28;66162;-36
2022/04/02 08:06:52;;;;;;;2.28;2.08;;;;;;;33.73;57.55;100602.25;5014021;28;70616;-35
2022/04/02 08:09:29;;;;;;;3.33;2.00;;;;;;;33.76;57.39;100590.84;5011017;28;66292;-35
2022/04/02 08:12:00;;;;;;;3.17;2.25;;;;;;;33.81;57.74;100580.88;5013309;28;70168;-35
2022/04/02 08:14:32;;;;;;;3.30;2.13;;;;;;;33.64;57.58;100557.47;4992189;28;66538;-35
2022/04/02 08:17:04;;;;;;;2.33;1.90;;;;;;;33.93;57.37;100583.50;5019666;28;70173;-34
2022/04/02 08:19:39;;;;;;;1.92;1.73;;;;;;;33.97;57.00;100594.75;5000788;28;65292;-34
2022/04/02 08:22:10;;;;;;;2.78;1.42;;;;;;;34.02;57.40;100597.56;5000758;28;69974;-35
2022/04/02 08:24:42;;;;;;;7.20;1.80;;;;;;;34.06;57.54;100609.59;5019284;28;65599;-41
2022/04/02 08:27:33;;;;;;;1.98;1.77;;;;;;;33.72;57.30;100549.72;5008601;28;69715;-35
2022/04/02 08:30:16;;;;;;;4.20;1.83;;;;;;;34.14;57.23;100609.19;4994231;28;65515;-34
2022/04/02 08:33:16;;;;;;;2.30;2.10;;;;;;;34.14;56.60;100620.06;4984532;28;68925;-34
2022/04/02 08:36:32;;;;;;;3.08;2.30;;;;;;;34.14;56.85;100620.06;5017124;28;66338;-35
2022/04/02 08:39:15;;;;;;;6.65;2.70;;;;;;;34.20;56.48;100626.41;4992809;28;70645;-34
2022/04/02 08:42:12;;;;;;;10.88;2.78;;;;;;;34.21;55.64;100622.63;5012067;28;66244;-33
2022/04/02 08:45:05;;;;;;;6.70;2.47;;;;;;;34.25;56.14;100619.16;5011956;28;69550;-34
2022/04/02 08:47:42;;;;;;;16.92;2.58;;;;;;;34.32;55.57;100624.41;5007998;28;66802;-34
2022/04/02 08:50:15;;;;;;;9.63;2.60;;;;;;;34.09;54.64;100576.44;4955612;28;68594;-34
2022/04/02 08:52:57;;;;;;;5.05;2.45;;;;;;;34.20;54.89;100597.28;5008431;28;66979;-34
2022/04/02 08:55:45;;;;;;;21.58;4.47;;;;;;;34.07;54.41;100573.13;5016747;28;69554;-34
2022/04/02 08:58:25;;;;;;;21.08;3.97;;;;;;;34.42;53.98;100612.84;5018654;28;66367;-35
2022/04/02 09:01:10;;;;;;;4.90;3.03;;;;;;;34.48;53.57;100620.84;5026647;28;69351;-35
2022/04/02 09:04:02;;;;;;;5.03;3.88;;;;;;;34.59;53.25;100621.84;5018902;28;66506;-35
2022/04/02 09:06:52;;;;;;;7.80;3.75;;;;;;;34.52;53.19;100613.00;5018676;28;70209;-36
2022/04/02 09:10:07;;;;;;;5.97;4.03;;;;;;;34.54;52.67;100608.09;4999611;28;66788;-36
2022/04/02 09:12:56;;;;;;;7.93;3.10;;;;;;;34.68;52.66;100614.03;5015852;28;70031;-36
2022/04/02 09:15:55;;;;;;;12.50;3.80;;;;;;;34.66;53.19;100614.31;4997119;28;66135;-35
2022/04/02 09:18:37;;;;;;;15.57;3.33;;;;;;;34.64;52.93;100610.19;5003109;28;70388;-35
2022/04/02 09:21:31;;;;;;;11.07;2.72;;;;;;;34.67;52.80;100609.69;4997945;28;66983;-36
2022/04/02 09:24:04;;;;;;;11.75;2.13;;;;;;;34.67;54.37;100610.50;5026612;28;70121;-36
2022/04/02 09:27:10;;;;;;;7.13;2.95;;;;;;;34.53;54.22;100611.91;5019638;28;66623;-36
2022/04/02 09:30:06;;;;;;;10.35;2.88;;;;;;;34.63;54.01;100623.00;5022704;28;70203;-36
2022/04/02 09:33:16;;;;;;;7.68;3.10;;;;;;;34.52;54.10;100613.00;5025147;28;43296;-35
2022/04/02 09:36:24;;;;;;;9.93;4.03;;;;;;;34.48;53.90;100606.41;5002980;28;69352;-36
2022/04/02 09:39:20;;;;;;;9.13;3.55;;;;;;;34.54;54.13;100616.28;4995448;28;66248;-35
2022/04/02 09:41:59;;;;;;;8.10;3.35;;;;;;;34.19;53.97;100579.31;5000628;28;70280;-38
2022/04/02 09:45:15;;;;;;;9.38;3.17;;;;;;;34.02;53.30;100570.34;5007673;28;66044;-36
2022/04/02 09:47:51;;;;;;;5.97;3.17;;;;;;;34.37;53.32;100637.28;5007900;28;69069;-35
2022/04/02 09:50:24;;;;;;;15.80;4.20;;;;;;;33.96;53.75;100579.47;5016109;28;66523;-37
2022/04/02 09:52:57;;;;;;;6.13;4.70;;;;;;;34.30;53.91;100656.53;5012400;28;70247;-35
2022/04/02 09:55:51;;;;;;;10.75;4.88;;;;;;;34.17;54.05;100649.53;5015877;28;65882;-45
2022/04/02 09:58:59;;;;;;;8.88;4.07;;;;;;;34.55;53.68;100666.13;5015270;28;70170;-36
2022/04/02 10:01:48;;;;;;;8.45;5.00;;;;;;;34.73;52.81;100678.69;4996149;28;66524;-35
2022/04/02 10:04:25;;;;;;;9.02;4.50;;;;;;;34.91;52.77;100681.13;4997332;28;70317;-36
2022/04/02 10:06:58;;;;;;;7.95;4.00;;;;;;;34.99;52.40;100694.28;5005119;28;66826;-36
2022/04/02 10:09:36;;;;;;;11.93;4.25;;;;;;;35.02;52.45;100699.25;4995345;28;69399;-36
2022/04/02 10:12:09;;;;;;;5.80;3.67;;;;;;;35.02;52.55;100701.97;5001314;28;65350;-36
2022/04/02 10:14:42;;;;;;;10.80;4.13;;;;;;;34.71;52.78;100654.41;5018010;28;70062;-35
2022/04/02 10:17:14;;;;;;;5.30;3.63;;;;;;;35.07;53.58;100712.13;5012149;28;65982;-36
2022/04/02 10:19:55;;;;;;;9.85;6.05;;;;;;;34.66;53.40;100665.25;5038622;28;70469;-36
2022/04/02 10:22:47;;;;;;;25.83;12.85;;;;;;;34.30;54.87;100718.31;5038253;28;66715;-36
2022/04/02 10:25:19;;;;;;;18.77;11.27;;;;;;;34.08;55.46;100726.41;4988056;28;69725;-35
2022/04/02 10:27:49;;;;;;;16.80;9.60;;;;;;;33.93;56.28;100740.53;5016181;28;66213;-36
2022/04/02 10:30:20;;;;;;;9.45;7.63;;;;;;;33.72;57.04;100729.28;4981003;28;68983;-35
2022/04/02 10:35:54;;;;;;;13.27;7.22;;;;;;;33.51;57.69;100743.50;4993760;28;70747;-40
2022/04/02 10:38:36;;;;;;;8.73;6.90;;;;;;;33.05;57.93;100699.91;5004232;28;67322;-35
2022/04/02 10:41:18;;;;;;;11.18;7.68;;;;;;;33.35;57.98;100772.31;5015205;28;69632;-35
2022/04/02 10:44:09;;;;;;;12.93;6.18;;;;;;;33.30;58.52;100778.44;5007437;28;66812;-35
2022/04/02 10:46:45;;;;;;;6.13;5.47;;;;;;;33.21;58.64;100784.47;4980662;28;69264;-36
2022/04/02 10:49:33;;;;;;;8.50;5.88;;;;;;;32.94;58.72;100761.31;5014515;28;66113;-36
2022/04/02 10:52:04;;;;;;;8.23;6.38;;;;;;;33.06;58.95;100790.41;4994753;28;69801;-36
2022/04/02 10:54:38;;;;;;;9.47;7.47;;;;;;;32.93;59.17;100781.41;5016323;28;68027;-35
2022/04/02 10:57:10;;;;;;;14.40;5.95;;;;;;;32.96;59.15;100811.88;5008869;28;70079;-36
2022/04/02 10:59:44;;;;;;;8.77;6.30;;;;;;;32.90;59.51;100814.50;4995763;28;66514;-35
2022/04/02 11:02:23;;;;;;;12.30;7.07;;;;;;;32.43;59.51;100749.25;5008461;28;70494;-37
2022/04/02 11:05:04;;;;;;;12.07;6.55;;;;;;;32.83;60.02;100830.06;5016247;28;67127;-35
2022/04/02 11:07:40;;;;;;;11.45;7.15;;;;;;;32.79;60.14;100838.91;5016147;28;69642;-35
2022/04/02 11:10:19;;;;;;;13.20;8.57;;;;;;;32.71;60.65;100849.06;5011411;28;65750;-37
2022/04/02 11:13:00;;;;;;;9.90;7.20;;;;;;;32.66;60.90;100850.84;5011590;28;70208;-36
2022/04/02 11:15:37;;;;;;;8.50;7.53;;;;;;;32.63;60.97;100857.56;5008229;28;66314;-37
2022/04/02 11:18:18;;;;;;;8.57;7.65;;;;;;;32.59;61.27;100866.41;5016144;28;69322;-37
2022/04/02 11:21:00;;;;;;;10.68;8.23;;;;;;;32.61;61.25;100873.25;5007551;28;65649;-36
2022/04/02 11:23:52;;;;;;;;;;;;;;;32.32;62.58;100877.63;5019411;28;69913;-36
2022/04/02 11:26:28;;;;;;;19.00;10.98;;;;;;;32.59;62.45;100896.28;5022146;28;66817;-36
2022/04/02 11:29:03;;;;;;;18.77;10.90;;;;;;;32.59;62.74;100888.13;5000159;28;69886;-36
2022/04/02 11:31:36;;;;;;;10.10;9.10;;;;;;;31.90;62.34;100779.88;5009712;28;65386;-35
2022/04/02 11:34:11;;;;;;;15.75;10.50;;;;;;;32.57;62.11;100890.22;4997820;28;69507;-36
2022/04/02 11:36:46;;;;;;;19.88;11.63;;;;;;;32.60;62.10;100895.22;5001243;28;67238;-36
2022/04/02 11:39:33;;;;;;;18.98;14.50;;;;;;;32.22;62.00;100850.19;4986509;28;69576;-36
2022/04/02 11:42:07;;;;;;;16.08;13.70;;;;;;;32.60;61.97;100895.22;5017674;28;66117;-35
2022/04/02 11:44:38;;;;;;;17.70;11.73;;;;;;;32.58;61.80;100898.16;5010149;28;70492;-36
2022/04/02 11:47:11;;;;;;;11.45;9.57;;;;;;;32.57;61.92;100911.97;5016044;28;65432;-36
2022/04/02 11:49:52;;;;;;;22.60;9.77;;;;;;;32.56;61.56;100916.56;4989715;28;70665;-36
2022/04/02 11:52:23;;;;;;;15.65;14.05;;;;;;;32.49;61.90;100911.25;5001469;28;65807;-38
2022/04/02 11:54:54;;;;;;;11.63;10.20;;;;;;;32.47;62.34;100924.22;5017207;28;69966;-35
2022/04/02 11:57:24;;;;;;;19.02;13.10;;;;;;;32.40;62.41;100928.91;5027620;28;66388;-37
2022/04/02 12:00:05;;;;;;;20.05;12.45;;;;;;;31.79;62.62;100845.75;5020222;28;70179;-35
2022/04/02 12:02:43;;;;;;;17.17;11.93;;;;;;;31.88;62.34;100859.81;4993557;28;66059;-36
2022/04/02 12:05:16;;;;;;;17.90;14.85;;;;;;;32.36;62.36;100954.81;5014695;28;69192;-35
2022/04/02 12:07:48;;;;;;;16.58;12.85;;;;;;;32.33;62.52;100960.72;5016493;28;66396;-35
2022/04/02 12:10:46;;;;;;;19.52;13.73;;;;;;;31.96;62.60;100895.63;5002960;28;70170;-36
2022/04/02 12:13:17;;;;;;;25.65;15.55;;;;;;;32.46;62.65;100970.63;5015676;28;65014;-35
2022/04/02 12:16:13;;;;;;;18.15;15.07;;;;;;;32.40;62.93;100971.47;5012517;28;69704;-36